createdAt,value
2022-08-04T13:40:55.070Z,100887.00
2022-08-04T13:44:18.033Z,100899.97
2022-08-04T13:46:57.612Z,100908.25
2022-08-04T13:49:43.074Z,100917.53
2022-08-04T13:52:18.942Z,100924.63
2022-08-04T13:54:53.493Z,100931.19
2022-08-04T13:57:33.771Z,100927.03
2022-08-04T14:00:10.838Z,100931.75
2022-08-04T14:02:52.570Z,100933.25
2022-08-04T14:05:29.518Z,100936.00
2022-08-04T14:08:26.794Z,100932.75
2022-08-04T14:11:00.491Z,100935.91
2022-08-04T14:13:41.977Z,100944.56
2022-08-04T14:16:23.216Z,100940.91
2022-08-04T14:19:02.824Z,100943.41
2022-08-04T14:21:39.214Z,100930.75
2022-08-04T14:24:10.320Z,100943.78
2022-08-04T14:26:40.684Z,100943.41
2022-08-04T14:29:26.657Z,100942.13
2022-08-04T14:32:14.670Z,100940.19
2022-08-04T14:34:48.437Z,100944.13
2022-08-04T14:37:23.473Z,100940.44
2022-08-04T14:40:18.439Z,100938.16
2022-08-04T14:42:55.238Z,100947.16
2022-08-04T14:45:54.843Z,100952.34
2022-08-04T14:48:25.797Z,100953.97
2022-08-04T14:50:57.013Z,100960.81
2022-08-04T14:53:29.012Z,100941.81
2022-08-04T14:56:03.384Z,100959.38
2022-08-04T14:58:39.200Z,100955.97
2022-08-04T15:01:12.955Z,100960.38
2022-08-04T15:03:49.650Z,100958.94
2022-08-04T15:06:31.445Z,100962.63
2022-08-04T15:09:09.230Z,100968.13
2022-08-04T15:11:43.459Z,100961.50
2022-08-04T15:14:18.540Z,100962.16
2022-08-04T15:17:07.343Z,100967.00
2022-08-04T15:19:55.702Z,100962.00
2022-08-04T15:22:26.736Z,100972.91
2022-08-04T15:24:57.417Z,100978.09
2022-08-04T15:27:31.429Z,100967.06
2022-08-04T15:30:11.254Z,100972.13
2022-08-04T15:32:46.845Z,100972.97
2022-08-04T15:35:38.795Z,100980.75
2022-08-04T15:38:27.836Z,100978.31
2022-08-04T15:41:12.770Z,100983.19
2022-08-04T15:44:25.857Z,100979.44
2022-08-04T15:47:15.078Z,100991.22
2022-08-04T15:49:47.212Z,100976.91
2022-08-04T15:52:21.728Z,100986.31
2022-08-04T15:55:12.351Z,100987.16
2022-08-04T15:58:03.679Z,100978.38
2022-08-04T16:00:57.866Z,100976.41
2022-08-04T16:04:00.563Z,100980.00
2022-08-04T16:06:31.466Z,100986.16
2022-08-04T16:09:02.491Z,100978.19
2022-08-04T16:11:34.491Z,100984.69
2022-08-04T16:14:05.133Z,100982.88
2022-08-04T16:16:47.198Z,100979.81
2022-08-04T16:19:22.778Z,100985.13
2022-08-04T16:21:56.307Z,100985.97
2022-08-04T16:24:33.595Z,100978.81
2022-08-04T16:27:14.628Z,100978.31
2022-08-04T16:29:46.666Z,100968.09
2022-08-04T16:32:18.970Z,100973.91
2022-08-04T16:34:56.265Z,100975.56
2022-08-04T16:37:40.614Z,100957.69
2022-08-04T16:40:46.617Z,100969.53
2022-08-04T16:43:23.026Z,100967.38
2022-08-04T16:45:57.328Z,100955.88
2022-08-04T16:48:36.856Z,100947.59
2022-08-04T16:51:09.380Z,100948.41
2022-08-04T16:53:59.191Z,100946.09
2022-08-04T16:56:36.656Z,100949.34
2022-08-04T16:59:12.299Z,100947.59
2022-08-04T17:01:50.041Z,100950.66
2022-08-04T17:04:20.690Z,100948.41
2022-08-04T17:06:51.456Z,100947.91
2022-08-04T17:09:26.885Z,100958.63
2022-08-04T17:12:00.101Z,100951.50
2022-08-04T17:14:31.765Z,100950.97
2022-08-04T17:17:04.235Z,100954.25
2022-08-04T17:19:39.764Z,100951.59
2022-08-04T17:22:11.530Z,100943.84
2022-08-04T17:24:42.860Z,100938.31
2022-08-04T17:28:20.141Z,100931.16
2022-08-04T17:30:04.422Z,100934.53
2022-08-04T17:32:35.525Z,100923.50
2022-08-04T17:35:11.353Z,100932.13
2022-08-04T17:37:53.173Z,100925.25
2022-08-04T17:40:25.972Z,100919.75
2022-08-04T17:44:04.923Z,100914.09
2022-08-04T17:46:29.365Z,100905.03
2022-08-04T17:49:18.520Z,100894.28
2022-08-04T17:52:04.199Z,100891.88
2022-08-04T17:54:43.399Z,100891.88
2022-08-04T17:57:21.596Z,100879.38
2022-08-04T17:59:59.329Z,100881.63
2022-08-04T18:02:34.842Z,100878.56
2022-08-04T18:05:11.320Z,100882.13
2022-08-04T18:08:37.720Z,100871.72
2022-08-04T18:10:55.147Z,100865.69
2022-08-04T18:13:42.932Z,100859.22
2022-08-04T18:16:22.550Z,100861.53
2022-08-04T18:19:13.655Z,100853.53
2022-08-04T18:21:46.429Z,100869.28
2022-08-04T18:24:55.645Z,100862.66
2022-08-04T18:27:29.898Z,100866.41
2022-08-04T18:30:34.632Z,100865.25
2022-08-04T18:33:24.531Z,100863.00
2022-08-04T18:36:33.427Z,100858.31
2022-08-04T18:38:32.520Z,100853.59
2022-08-04T18:41:02.780Z,100851.16
2022-08-04T18:43:41.040Z,100853.44
2022-08-04T18:46:15.110Z,100843.19
2022-08-04T18:48:52.405Z,100835.56
2022-08-04T18:51:24.938Z,100838.34
2022-08-04T18:54:01.440Z,100834.75
2022-08-04T18:56:34.143Z,100833.94
2022-08-04T18:59:10.225Z,100828.59
2022-08-04T19:02:12.382Z,100833.78
2022-08-04T19:04:36.750Z,100831.22
2022-08-04T19:07:29.207Z,100830.72
2022-08-04T19:09:59.882Z,100820.81
2022-08-04T19:12:30.602Z,100822.47
2022-08-04T19:15:10.630Z,100821.97
2022-08-04T19:17:54.261Z,100812.06
2022-08-04T19:20:31.450Z,100810.91
2022-08-04T19:24:10.272Z,100802.66
2022-08-04T19:26:01.196Z,100783.47
2022-08-04T19:28:40.023Z,100782.34
2022-08-04T19:31:11.781Z,100775.19
2022-08-04T19:36:38.551Z,100779.06
2022-08-04T19:39:16.490Z,100785.59
2022-08-04T19:42:06.055Z,100776.03
2022-08-04T19:44:37.002Z,100773.91
2022-08-04T19:48:16.474Z,100776.97
2022-08-04T19:50:10.554Z,100786.84
2022-08-04T19:52:51.587Z,100789.59
2022-08-04T19:55:37.178Z,100781.72
2022-08-04T19:58:10.232Z,100774.22
2022-08-04T20:00:44.825Z,100775.88
2022-08-04T20:03:21.982Z,100774.72
2022-08-04T20:05:55.302Z,100778.31
2022-08-04T20:08:32.639Z,100782.88
2022-08-04T20:11:03.106Z,100788.72
2022-08-04T20:13:37.679Z,100778.63
2022-08-04T20:16:30.449Z,100790.66
2022-08-04T20:19:04.118Z,100792.75
2022-08-04T20:21:56.180Z,100777.44
2022-08-04T20:24:37.648Z,100778.78
2022-08-04T20:27:16.237Z,100773.94
2022-08-04T20:29:49.902Z,100772.81
2022-08-04T20:32:26.211Z,100774.22
2022-08-04T20:34:58.577Z,100773.56
2022-08-04T20:37:54.785Z,100764.78
2022-08-04T20:40:20.289Z,100777.66
2022-08-04T20:42:53.542Z,100765.13
2022-08-04T20:45:24.171Z,100776.03
2022-08-04T20:48:14.425Z,100774.22
2022-08-04T20:50:51.683Z,100777.28
2022-08-04T20:53:21.884Z,100772.06
2022-08-04T20:56:12.070Z,100783.38
2022-08-04T20:58:49.774Z,100774.81
2022-08-04T21:01:20.096Z,100785.84
2022-08-04T21:04:28.209Z,100773.97
2022-08-04T21:06:59.914Z,100778.69
2022-08-04T21:09:37.859Z,100782.41
2022-08-04T21:12:27.463Z,100777.69
2022-08-04T21:15:13.311Z,100772.19
2022-08-04T21:17:59.597Z,100786.16
2022-08-04T21:20:39.496Z,100785.66
2022-08-04T21:23:12.949Z,100786.28
2022-08-04T21:25:43.786Z,100789.22
2022-08-04T21:28:20.284Z,100787.94
2022-08-04T21:30:54.919Z,100784.66
2022-08-04T21:36:21.014Z,100775.25
2022-08-04T21:38:52.501Z,100774.44
2022-08-04T21:41:24.622Z,100756.47
2022-08-04T21:43:59.096Z,100760.53
2022-08-04T21:46:32.047Z,100757.44
2022-08-04T21:49:04.414Z,100757.75
2022-08-04T21:51:59.350Z,100761.03
2022-08-04T21:54:31.279Z,100759.28
2022-08-04T21:57:03.422Z,100757.00
2022-08-04T21:59:33.971Z,100768.69
2022-08-04T22:02:17.309Z,100758.28
2022-08-04T22:04:48.369Z,100759.06
2022-08-04T22:07:22.995Z,100746.31
2022-08-04T22:10:00.339Z,100743.72
2022-08-04T22:12:34.120Z,100739.50
2022-08-04T22:16:04.032Z,100735.38
2022-08-04T22:17:57.093Z,100740.72
2022-08-04T22:20:28.353Z,100742.34
2022-08-04T22:23:15.723Z,100744.94
2022-08-04T22:25:55.755Z,100751.13
2022-08-04T22:28:28.978Z,100755.81
2022-08-04T22:30:59.907Z,100742.97
2022-08-04T22:33:55.298Z,100753.56
2022-08-04T22:36:26.972Z,100753.28
2022-08-04T22:39:06.577Z,100764.16
2022-08-04T22:42:03.098Z,100760.09
2022-08-04T22:44:33.076Z,100769.31
2022-08-04T22:47:06.737Z,100761.81
2022-08-04T22:49:39.895Z,100765.22
2022-08-04T22:52:17.009Z,100765.88
2022-08-04T22:54:57.418Z,100772.31
2022-08-04T22:57:43.373Z,100766.63
2022-08-04T23:00:28.661Z,100766.94
2022-08-04T23:02:59.627Z,100769.38
